sensor_id;sensor_type;location;lat;lon;timestamp;P1;durP1;ratioP1;P2;durP2;ratioP2
24585;SDS011;12743;52.262;6.172;2023-12-07T00:00:04;24.48;;;11.60;;
24585;SDS011;12743;52.262;6.172;2023-12-07T00:02:31;23.35;;;11.75;;
24585;SDS011;12743;52.262;6.172;2023-12-07T00:04:57;23.67;;;11.70;;
24585;SDS011;12743;52.262;6.172;2023-12-07T00:07:24;24.00;;;11.07;;
24585;SDS011;12743;52.262;6.172;2023-12-07T00:09:50;23.33;;;10.82;;
24585;SDS011;12743;52.262;6.172;2023-12-07T00:12:18;24.67;;;10.50;;
24585;SDS011;12743;52.262;6.172;2023-12-07T00:14:45;22.90;;;10.23;;
24585;SDS011;12743;52.262;6.172;2023-12-07T00:17:11;21.65;;;9.63;;
24585;SDS011;12743;52.262;6.172;2023-12-07T00:19:38;20.55;;;9.95;;
24585;SDS011;12743;52.262;6.172;2023-12-07T00:22:05;18.27;;;8.85;;
24585;SDS011;12743;52.262;6.172;2023-12-07T00:24:31;20.45;;;9.38;;
24585;SDS011;12743;52.262;6.172;2023-12-07T00:26:59;20.42;;;9.82;;
24585;SDS011;12743;52.262;6.172;2023-12-07T00:29:25;17.85;;;8.25;;
24585;SDS011;12743;52.262;6.172;2023-12-07T00:31:52;16.95;;;9.13;;
24585;SDS011;12743;52.262;6.172;2023-12-07T00:34:18;17.30;;;8.52;;
24585;SDS011;12743;52.262;6.172;2023-12-07T00:36:45;19.23;;;9.77;;
24585;SDS011;12743;52.262;6.172;2023-12-07T00:39:12;17.95;;;9.05;;
24585;SDS011;12743;52.262;6.172;2023-12-07T00:41:39;16.90;;;8.73;;
24585;SDS011;12743;52.262;6.172;2023-12-07T00:44:05;17.83;;;8.85;;
24585;SDS011;12743;52.262;6.172;2023-12-07T00:46:32;15.77;;;8.02;;
24585;SDS011;12743;52.262;6.172;2023-12-07T00:48:59;20.35;;;8.73;;
24585;SDS011;12743;52.262;6.172;2023-12-07T00:51:25;17.52;;;8.55;;
24585;SDS011;12743;52.262;6.172;2023-12-07T00:53:52;16.40;;;8.45;;
24585;SDS011;12743;52.262;6.172;2023-12-07T00:56:19;16.70;;;8.27;;
24585;SDS011;12743;52.262;6.172;2023-12-07T00:58:45;16.40;;;8.32;;
24585;SDS011;12743;52.262;6.172;2023-12-07T01:01:12;18.83;;;8.52;;
24585;SDS011;12743;52.262;6.172;2023-12-07T01:03:39;18.00;;;8.60;;
24585;SDS011;12743;52.262;6.172;2023-12-07T01:06:07;16.52;;;8.63;;
24585;SDS011;12743;52.262;6.172;2023-12-07T01:08:34;16.90;;;8.82;;
24585;SDS011;12743;52.262;6.172;2023-12-07T01:11:01;15.55;;;8.23;;
24585;SDS011;12743;52.262;6.172;2023-12-07T01:13:27;16.67;;;8.38;;
24585;SDS011;12743;52.262;6.172;2023-12-07T01:15:54;18.33;;;8.23;;
24585;SDS011;12743;52.262;6.172;2023-12-07T01:18:21;18.13;;;8.70;;
24585;SDS011;12743;52.262;6.172;2023-12-07T01:20:48;15.38;;;7.47;;
24585;SDS011;12743;52.262;6.172;2023-12-07T01:23:15;18.70;;;8.93;;
24585;SDS011;12743;52.262;6.172;2023-12-07T01:25:42;19.27;;;8.80;;
24585;SDS011;12743;52.262;6.172;2023-12-07T01:28:08;16.60;;;7.85;;
24585;SDS011;12743;52.262;6.172;2023-12-07T01:30:35;17.13;;;8.15;;
24585;SDS011;12743;52.262;6.172;2023-12-07T01:33:02;20.50;;;9.65;;
24585;SDS011;12743;52.262;6.172;2023-12-07T01:35:29;16.15;;;7.68;;
24585;SDS011;12743;52.262;6.172;2023-12-07T01:37:56;20.98;;;8.73;;
24585;SDS011;12743;52.262;6.172;2023-12-07T01:40:22;18.13;;;8.57;;
24585;SDS011;12743;52.262;6.172;2023-12-07T01:42:50;15.65;;;7.78;;
24585;SDS011;12743;52.262;6.172;2023-12-07T01:45:18;16.88;;;8.45;;
24585;SDS011;12743;52.262;6.172;2023-12-07T01:47:45;16.30;;;8.48;;
24585;SDS011;12743;52.262;6.172;2023-12-07T01:50:13;14.73;;;7.90;;
24585;SDS011;12743;52.262;6.172;2023-12-07T01:52:44;16.55;;;8.30;;
24585;SDS011;12743;52.262;6.172;2023-12-07T01:55:13;17.33;;;8.77;;
24585;SDS011;12743;52.262;6.172;2023-12-07T01:57:41;16.05;;;7.93;;
24585;SDS011;12743;52.262;6.172;2023-12-07T02:00:09;14.77;;;7.50;;
24585;SDS011;12743;52.262;6.172;2023-12-07T02:02:37;16.98;;;8.10;;
24585;SDS011;12743;52.262;6.172;2023-12-07T02:05:04;17.80;;;8.90;;
24585;SDS011;12743;52.262;6.172;2023-12-07T02:07:31;19.02;;;8.52;;
24585;SDS011;12743;52.262;6.172;2023-12-07T02:10:00;15.15;;;7.45;;
24585;SDS011;12743;52.262;6.172;2023-12-07T02:12:27;16.75;;;8.43;;
24585;SDS011;12743;52.262;6.172;2023-12-07T02:14:56;18.60;;;9.00;;
24585;SDS011;12743;52.262;6.172;2023-12-07T02:17:38;18.75;;;8.30;;
24585;SDS011;12743;52.262;6.172;2023-12-07T02:20:18;17.75;;;8.73;;
24585;SDS011;12743;52.262;6.172;2023-12-07T02:22:54;17.95;;;8.82;;
24585;SDS011;12743;52.262;6.172;2023-12-07T02:25:44;18.02;;;8.00;;
24585;SDS011;12743;52.262;6.172;2023-12-07T02:28:12;16.58;;;8.10;;
24585;SDS011;12743;52.262;6.172;2023-12-07T02:30:39;15.68;;;7.82;;
24585;SDS011;12743;52.262;6.172;2023-12-07T02:33:05;17.67;;;8.05;;
24585;SDS011;12743;52.262;6.172;2023-12-07T02:35:32;18.40;;;8.63;;
24585;SDS011;12743;52.262;6.172;2023-12-07T02:37:59;17.60;;;8.23;;
24585;SDS011;12743;52.262;6.172;2023-12-07T02:40:27;16.27;;;8.35;;
24585;SDS011;12743;52.262;6.172;2023-12-07T02:42:55;17.42;;;7.93;;
24585;SDS011;12743;52.262;6.172;2023-12-07T02:45:22;19.00;;;8.73;;
24585;SDS011;12743;52.262;6.172;2023-12-07T02:47:49;20.45;;;8.52;;
24585;SDS011;12743;52.262;6.172;2023-12-07T02:50:16;17.48;;;8.15;;
24585;SDS011;12743;52.262;6.172;2023-12-07T02:52:43;17.58;;;7.97;;
24585;SDS011;12743;52.262;6.172;2023-12-07T02:55:09;16.17;;;8.55;;
24585;SDS011;12743;52.262;6.172;2023-12-07T02:57:36;17.75;;;8.82;;
24585;SDS011;12743;52.262;6.172;2023-12-07T03:00:03;17.52;;;7.93;;
24585;SDS011;12743;52.262;6.172;2023-12-07T03:02:34;17.80;;;8.48;;
24585;SDS011;12743;52.262;6.172;2023-12-07T03:05:05;16.13;;;7.45;;
24585;SDS011;12743;52.262;6.172;2023-12-07T03:07:33;18.75;;;8.05;;
24585;SDS011;12743;52.262;6.172;2023-12-07T03:10:00;22.52;;;9.32;;
24585;SDS011;12743;52.262;6.172;2023-12-07T03:12:26;18.65;;;8.77;;
24585;SDS011;12743;52.262;6.172;2023-12-07T03:14:53;17.73;;;8.82;;
24585;SDS011;12743;52.262;6.172;2023-12-07T03:17:20;18.02;;;8.45;;
24585;SDS011;12743;52.262;6.172;2023-12-07T03:19:46;19.95;;;8.43;;
24585;SDS011;12743;52.262;6.172;2023-12-07T03:22:13;20.48;;;8.57;;
24585;SDS011;12743;52.262;6.172;2023-12-07T03:24:40;17.85;;;8.48;;
24585;SDS011;12743;52.262;6.172;2023-12-07T03:27:12;17.95;;;8.40;;
24585;SDS011;12743;52.262;6.172;2023-12-07T03:29:38;19.02;;;8.60;;
24585;SDS011;12743;52.262;6.172;2023-12-07T03:32:05;20.80;;;10.00;;
24585;SDS011;12743;52.262;6.172;2023-12-07T03:34:32;20.13;;;9.20;;
24585;SDS011;12743;52.262;6.172;2023-12-07T03:36:58;18.30;;;8.88;;
24585;SDS011;12743;52.262;6.172;2023-12-07T03:39:25;17.80;;;8.85;;
24585;SDS011;12743;52.262;6.172;2023-12-07T03:41:52;21.00;;;9.43;;
24585;SDS011;12743;52.262;6.172;2023-12-07T03:44:19;22.83;;;10.05;;
24585;SDS011;12743;52.262;6.172;2023-12-07T03:46:45;16.33;;;8.40;;
24585;SDS011;12743;52.262;6.172;2023-12-07T03:49:12;21.98;;;9.40;;
24585;SDS011;12743;52.262;6.172;2023-12-07T03:51:39;18.17;;;8.32;;
24585;SDS011;12743;52.262;6.172;2023-12-07T03:54:06;17.10;;;8.45;;
24585;SDS011;12743;52.262;6.172;2023-12-07T03:56:33;19.00;;;8.40;;
24585;SDS011;12743;52.262;6.172;2023-12-07T03:59:00;22.42;;;10.20;;
24585;SDS011;12743;52.262;6.172;2023-12-07T04:01:27;18.70;;;9.10;;
24585;SDS011;12743;52.262;6.172;2023-12-07T04:03:55;22.90;;;9.80;;
24585;SDS011;12743;52.262;6.172;2023-12-07T04:06:22;21.20;;;9.77;;
24585;SDS011;12743;52.262;6.172;2023-12-07T04:08:49;24.88;;;10.80;;
24585;SDS011;12743;52.262;6.172;2023-12-07T04:11:16;25.17;;;11.18;;
24585;SDS011;12743;52.262;6.172;2023-12-07T04:13:43;21.75;;;9.27;;
24585;SDS011;12743;52.262;6.172;2023-12-07T04:16:10;21.48;;;9.73;;
24585;SDS011;12743;52.262;6.172;2023-12-07T04:18:37;22.50;;;9.88;;
24585;SDS011;12743;52.262;6.172;2023-12-07T04:21:04;19.38;;;9.23;;
24585;SDS011;12743;52.262;6.172;2023-12-07T04:23:32;21.38;;;9.80;;
24585;SDS011;12743;52.262;6.172;2023-12-07T04:25:59;19.73;;;9.43;;
24585;SDS011;12743;52.262;6.172;2023-12-07T04:28:26;22.88;;;9.80;;
24585;SDS011;12743;52.262;6.172;2023-12-07T04:30:52;24.77;;;11.32;;
24585;SDS011;12743;52.262;6.172;2023-12-07T04:33:19;19.35;;;8.88;;
24585;SDS011;12743;52.262;6.172;2023-12-07T04:35:46;23.08;;;10.68;;
24585;SDS011;12743;52.262;6.172;2023-12-07T04:38:13;22.75;;;10.43;;
24585;SDS011;12743;52.262;6.172;2023-12-07T04:40:40;22.52;;;10.15;;
24585;SDS011;12743;52.262;6.172;2023-12-07T04:43:08;22.00;;;10.23;;
24585;SDS011;12743;52.262;6.172;2023-12-07T04:45:35;20.58;;;9.73;;
24585;SDS011;12743;52.262;6.172;2023-12-07T04:48:01;21.08;;;10.23;;
24585;SDS011;12743;52.262;6.172;2023-12-07T04:50:30;24.10;;;11.10;;
24585;SDS011;12743;52.262;6.172;2023-12-07T04:52:56;20.45;;;9.90;;
24585;SDS011;12743;52.262;6.172;2023-12-07T04:55:23;24.60;;;10.60;;
24585;SDS011;12743;52.262;6.172;2023-12-07T04:57:50;24.02;;;10.77;;
24585;SDS011;12743;52.262;6.172;2023-12-07T05:00:17;23.70;;;10.13;;
24585;SDS011;12743;52.262;6.172;2023-12-07T05:02:44;21.50;;;9.50;;
24585;SDS011;12743;52.262;6.172;2023-12-07T05:05:10;23.23;;;9.90;;
24585;SDS011;12743;52.262;6.172;2023-12-07T05:07:38;20.80;;;9.45;;
24585;SDS011;12743;52.262;6.172;2023-12-07T05:10:05;24.33;;;10.05;;
24585;SDS011;12743;52.262;6.172;2023-12-07T05:12:32;19.48;;;9.68;;
24585;SDS011;12743;52.262;6.172;2023-12-07T05:14:59;22.77;;;10.27;;
24585;SDS011;12743;52.262;6.172;2023-12-07T05:17:25;21.38;;;10.07;;
24585;SDS011;12743;52.262;6.172;2023-12-07T05:19:52;22.95;;;10.02;;
24585;SDS011;12743;52.262;6.172;2023-12-07T05:22:19;19.45;;;9.82;;
24585;SDS011;12743;52.262;6.172;2023-12-07T05:24:47;26.83;;;11.00;;
24585;SDS011;12743;52.262;6.172;2023-12-07T05:27:14;20.70;;;9.00;;
24585;SDS011;12743;52.262;6.172;2023-12-07T05:29:41;23.33;;;10.68;;
24585;SDS011;12743;52.262;6.172;2023-12-07T05:32:08;22.25;;;10.40;;
24585;SDS011;12743;52.262;6.172;2023-12-07T05:34:35;23.25;;;10.55;;
24585;SDS011;12743;52.262;6.172;2023-12-07T05:37:02;24.65;;;11.48;;
24585;SDS011;12743;52.262;6.172;2023-12-07T05:39:30;19.83;;;10.38;;
24585;SDS011;12743;52.262;6.172;2023-12-07T05:41:57;24.40;;;11.32;;
24585;SDS011;12743;52.262;6.172;2023-12-07T05:44:23;27.15;;;12.10;;
24585;SDS011;12743;52.262;6.172;2023-12-07T05:46:51;31.80;;;12.82;;
24585;SDS011;12743;52.262;6.172;2023-12-07T05:49:17;30.02;;;12.02;;
24585;SDS011;12743;52.262;6.172;2023-12-07T05:51:44;28.05;;;10.05;;
24585;SDS011;12743;52.262;6.172;2023-12-07T05:54:11;34.53;;;11.45;;
24585;SDS011;12743;52.262;6.172;2023-12-07T05:56:37;52.97;;;12.88;;
24585;SDS011;12743;52.262;6.172;2023-12-07T05:59:04;69.93;;;13.45;;
24585;SDS011;12743;52.262;6.172;2023-12-07T06:01:32;66.05;;;15.15;;
24585;SDS011;12743;52.262;6.172;2023-12-07T06:03:59;43.78;;;13.15;;
24585;SDS011;12743;52.262;6.172;2023-12-07T06:06:26;62.05;;;14.43;;
24585;SDS011;12743;52.262;6.172;2023-12-07T06:08:52;41.30;;;11.43;;
24585;SDS011;12743;52.262;6.172;2023-12-07T06:11:20;46.90;;;13.23;;
24585;SDS011;12743;52.262;6.172;2023-12-07T06:13:46;93.93;;;16.05;;
24585;SDS011;12743;52.262;6.172;2023-12-07T06:16:13;74.80;;;14.15;;
24585;SDS011;12743;52.262;6.172;2023-12-07T06:18:41;151.02;;;21.70;;
24585;SDS011;12743;52.262;6.172;2023-12-07T06:21:07;149.45;;;20.88;;
24585;SDS011;12743;52.262;6.172;2023-12-07T06:23:34;211.82;;;23.67;;
24585;SDS011;12743;52.262;6.172;2023-12-07T06:26:01;174.45;;;23.50;;
24585;SDS011;12743;52.262;6.172;2023-12-07T06:28:28;179.45;;;24.13;;
24585;SDS011;12743;52.262;6.172;2023-12-07T06:30:55;96.65;;;17.88;;
24585;SDS011;12743;52.262;6.172;2023-12-07T06:33:23;85.53;;;18.52;;
24585;SDS011;12743;52.262;6.172;2023-12-07T06:35:50;135.05;;;23.45;;
24585;SDS011;12743;52.262;6.172;2023-12-07T06:38:17;79.85;;;19.23;;
24585;SDS011;12743;52.262;6.172;2023-12-07T06:40:46;115.60;;;22.17;;
24585;SDS011;12743;52.262;6.172;2023-12-07T06:43:13;180.50;;;23.55;;
24585;SDS011;12743;52.262;6.172;2023-12-07T06:45:40;87.50;;;18.67;;
24585;SDS011;12743;52.262;6.172;2023-12-07T06:48:07;130.57;;;21.05;;
24585;SDS011;12743;52.262;6.172;2023-12-07T06:50:34;151.63;;;23.13;;
24585;SDS011;12743;52.262;6.172;2023-12-07T06:53:01;158.32;;;25.40;;
24585;SDS011;12743;52.262;6.172;2023-12-07T06:55:28;51.25;;;16.75;;
24585;SDS011;12743;52.262;6.172;2023-12-07T06:57:54;67.68;;;17.75;;
24585;SDS011;12743;52.262;6.172;2023-12-07T07:00:21;95.65;;;21.02;;
24585;SDS011;12743;52.262;6.172;2023-12-07T07:02:49;191.13;;;27.83;;
24585;SDS011;12743;52.262;6.172;2023-12-07T07:05:16;173.02;;;27.38;;
24585;SDS011;12743;52.262;6.172;2023-12-07T07:07:42;192.68;;;30.15;;
24585;SDS011;12743;52.262;6.172;2023-12-07T07:10:09;171.38;;;28.98;;
24585;SDS011;12743;52.262;6.172;2023-12-07T07:12:36;61.53;;;19.10;;
24585;SDS011;12743;52.262;6.172;2023-12-07T07:15:03;70.72;;;18.60;;
24585;SDS011;12743;52.262;6.172;2023-12-07T07:17:30;173.50;;;25.55;;
24585;SDS011;12743;52.262;6.172;2023-12-07T07:19:58;67.28;;;18.13;;
24585;SDS011;12743;52.262;6.172;2023-12-07T07:22:25;103.78;;;22.52;;
24585;SDS011;12743;52.262;6.172;2023-12-07T07:24:52;73.25;;;19.33;;
24585;SDS011;12743;52.262;6.172;2023-12-07T07:27:19;125.50;;;24.27;;
24585;SDS011;12743;52.262;6.172;2023-12-07T07:29:45;67.47;;;19.55;;
24585;SDS011;12743;52.262;6.172;2023-12-07T07:32:12;84.22;;;19.38;;
24585;SDS011;12743;52.262;6.172;2023-12-07T07:34:39;143.82;;;25.17;;
24585;SDS011;12743;52.262;6.172;2023-12-07T07:37:06;144.80;;;24.02;;
24585;SDS011;12743;52.262;6.172;2023-12-07T07:39:35;103.70;;;22.42;;
24585;SDS011;12743;52.262;6.172;2023-12-07T07:42:02;84.57;;;18.42;;
24585;SDS011;12743;52.262;6.172;2023-12-07T07:44:29;133.35;;;23.77;;
24585;SDS011;12743;52.262;6.172;2023-12-07T07:46:56;160.45;;;27.20;;
24585;SDS011;12743;52.262;6.172;2023-12-07T07:49:23;93.65;;;20.83;;
24585;SDS011;12743;52.262;6.172;2023-12-07T07:51:50;147.57;;;25.58;;
24585;SDS011;12743;52.262;6.172;2023-12-07T07:54:17;139.20;;;24.35;;
24585;SDS011;12743;52.262;6.172;2023-12-07T07:56:44;167.98;;;27.00;;
24585;SDS011;12743;52.262;6.172;2023-12-07T07:59:10;155.32;;;28.35;;
24585;SDS011;12743;52.262;6.172;2023-12-07T08:01:37;207.75;;;32.22;;
24585;SDS011;12743;52.262;6.172;2023-12-07T08:04:04;118.80;;;25.50;;
24585;SDS011;12743;52.262;6.172;2023-12-07T08:06:31;192.13;;;28.27;;
24585;SDS011;12743;52.262;6.172;2023-12-07T08:09:02;159.45;;;27.83;;
24585;SDS011;12743;52.262;6.172;2023-12-07T08:11:29;94.88;;;21.42;;
24585;SDS011;12743;52.262;6.172;2023-12-07T08:13:56;86.15;;;22.05;;
24585;SDS011;12743;52.262;6.172;2023-12-07T08:16:23;174.57;;;28.98;;
24585;SDS011;12743;52.262;6.172;2023-12-07T08:18:50;94.25;;;23.88;;
24585;SDS011;12743;52.262;6.172;2023-12-07T08:21:20;148.68;;;28.15;;
24585;SDS011;12743;52.262;6.172;2023-12-07T08:23:56;122.97;;;21.75;;
24585;SDS011;12743;52.262;6.172;2023-12-07T08:26:23;66.07;;;18.27;;
24585;SDS011;12743;52.262;6.172;2023-12-07T08:28:50;84.88;;;19.75;;
24585;SDS011;12743;52.262;6.172;2023-12-07T08:31:20;80.82;;;19.52;;
24585;SDS011;12743;52.262;6.172;2023-12-07T08:33:52;156.25;;;24.88;;
24585;SDS011;12743;52.262;6.172;2023-12-07T08:36:19;77.85;;;18.92;;
24585;SDS011;12743;52.262;6.172;2023-12-07T08:38:46;67.28;;;17.55;;
24585;SDS011;12743;52.262;6.172;2023-12-07T08:41:12;131.10;;;25.23;;
24585;SDS011;12743;52.262;6.172;2023-12-07T08:43:40;77.03;;;19.27;;
24585;SDS011;12743;52.262;6.172;2023-12-07T08:46:07;92.32;;;22.25;;
24585;SDS011;12743;52.262;6.172;2023-12-07T08:48:35;102.95;;;22.63;;
24585;SDS011;12743;52.262;6.172;2023-12-07T08:51:06;54.67;;;18.65;;
24585;SDS011;12743;52.262;6.172;2023-12-07T08:53:35;109.78;;;21.25;;
24585;SDS011;12743;52.262;6.172;2023-12-07T08:56:02;218.32;;;31.80;;
24585;SDS011;12743;52.262;6.172;2023-12-07T08:58:28;243.10;;;31.77;;
24585;SDS011;12743;52.262;6.172;2023-12-07T09:00:55;187.18;;;26.20;;
24585;SDS011;12743;52.262;6.172;2023-12-07T09:03:22;193.70;;;29.10;;
24585;SDS011;12743;52.262;6.172;2023-12-07T09:05:54;83.95;;;20.40;;
24585;SDS011;12743;52.262;6.172;2023-12-07T09:08:21;107.90;;;22.23;;
24585;SDS011;12743;52.262;6.172;2023-12-07T09:10:47;117.60;;;24.83;;
24585;SDS011;12743;52.262;6.172;2023-12-07T09:13:19;81.72;;;23.23;;
24585;SDS011;12743;52.262;6.172;2023-12-07T09:15:46;107.53;;;25.50;;
24585;SDS011;12743;52.262;6.172;2023-12-07T09:18:12;161.73;;;25.98;;
24585;SDS011;12743;52.262;6.172;2023-12-07T09:20:39;155.95;;;29.75;;
24585;SDS011;12743;52.262;6.172;2023-12-07T09:23:12;79.80;;;20.90;;
24585;SDS011;12743;52.262;6.172;2023-12-07T09:25:39;81.68;;;22.17;;
24585;SDS011;12743;52.262;6.172;2023-12-07T09:28:07;94.35;;;22.13;;
24585;SDS011;12743;52.262;6.172;2023-12-07T09:30:34;177.88;;;27.23;;
24585;SDS011;12743;52.262;6.172;2023-12-07T09:33:01;176.50;;;27.17;;
24585;SDS011;12743;52.262;6.172;2023-12-07T09:35:29;178.18;;;28.60;;
24585;SDS011;12743;52.262;6.172;2023-12-07T09:37:56;99.32;;;22.55;;
24585;SDS011;12743;52.262;6.172;2023-12-07T09:40:23;156.65;;;25.52;;
24585;SDS011;12743;52.262;6.172;2023-12-07T09:42:51;203.63;;;27.98;;
24585;SDS011;12743;52.262;6.172;2023-12-07T09:45:18;178.68;;;30.48;;
24585;SDS011;12743;52.262;6.172;2023-12-07T09:47:47;167.50;;;27.33;;
24585;SDS011;12743;52.262;6.172;2023-12-07T09:50:16;154.50;;;27.08;;
24585;SDS011;12743;52.262;6.172;2023-12-07T09:52:44;194.77;;;30.02;;
24585;SDS011;12743;52.262;6.172;2023-12-07T09:55:22;152.20;;;26.27;;
24585;SDS011;12743;52.262;6.172;2023-12-07T09:57:49;178.52;;;28.17;;
24585;SDS011;12743;52.262;6.172;2023-12-07T10:00:17;241.45;;;34.85;;
24585;SDS011;12743;52.262;6.172;2023-12-07T10:02:44;243.02;;;36.42;;
24585;SDS011;12743;52.262;6.172;2023-12-07T10:05:13;192.77;;;30.88;;
24585;SDS011;12743;52.262;6.172;2023-12-07T10:07:41;163.57;;;33.35;;
24585;SDS011;12743;52.262;6.172;2023-12-07T10:10:08;139.35;;;27.02;;
24585;SDS011;12743;52.262;6.172;2023-12-07T10:12:44;211.70;;;33.53;;
24585;SDS011;12743;52.262;6.172;2023-12-07T10:15:15;101.15;;;24.98;;
24585;SDS011;12743;52.262;6.172;2023-12-07T10:18:04;89.03;;;24.17;;
24585;SDS011;12743;52.262;6.172;2023-12-07T10:20:29;151.90;;;29.13;;
24585;SDS011;12743;52.262;6.172;2023-12-07T10:25:42;125.22;;;28.30;;
24585;SDS011;12743;52.262;6.172;2023-12-07T10:28:09;146.68;;;30.17;;
24585;SDS011;12743;52.262;6.172;2023-12-07T10:30:39;173.13;;;28.80;;
24585;SDS011;12743;52.262;6.172;2023-12-07T10:33:10;120.22;;;27.40;;
24585;SDS011;12743;52.262;6.172;2023-12-07T10:35:40;104.45;;;25.05;;
24585;SDS011;12743;52.262;6.172;2023-12-07T10:38:09;117.50;;;25.95;;
24585;SDS011;12743;52.262;6.172;2023-12-07T10:40:36;160.38;;;31.30;;
24585;SDS011;12743;52.262;6.172;2023-12-07T10:43:04;123.85;;;26.85;;
24585;SDS011;12743;52.262;6.172;2023-12-07T10:45:33;156.60;;;27.88;;
24585;SDS011;12743;52.262;6.172;2023-12-07T10:48:04;129.82;;;30.13;;
24585;SDS011;12743;52.262;6.172;2023-12-07T10:50:42;80.45;;;22.38;;
24585;SDS011;12743;52.262;6.172;2023-12-07T10:55:59;104.47;;;21.23;;
24585;SDS011;12743;52.262;6.172;2023-12-07T10:58:27;82.00;;;22.45;;
24585;SDS011;12743;52.262;6.172;2023-12-07T11:00:55;72.90;;;21.17;;
24585;SDS011;12743;52.262;6.172;2023-12-07T11:03:22;89.43;;;22.35;;
24585;SDS011;12743;52.262;6.172;2023-12-07T11:05:49;74.07;;;19.20;;
24585;SDS011;12743;52.262;6.172;2023-12-07T11:11:20;64.97;;;18.85;;
24585;SDS011;12743;52.262;6.172;2023-12-07T11:14:05;78.10;;;21.80;;
24585;SDS011;12743;52.262;6.172;2023-12-07T11:16:33;73.38;;;21.15;;
24585;SDS011;12743;52.262;6.172;2023-12-07T11:19:02;57.97;;;17.95;;
24585;SDS011;12743;52.262;6.172;2023-12-07T11:21:32;63.13;;;18.98;;
24585;SDS011;12743;52.262;6.172;2023-12-07T11:24:02;77.05;;;19.30;;
24585;SDS011;12743;52.262;6.172;2023-12-07T11:26:30;53.72;;;17.05;;
24585;SDS011;12743;52.262;6.172;2023-12-07T11:28:57;54.30;;;16.50;;
24585;SDS011;12743;52.262;6.172;2023-12-07T11:31:24;44.78;;;15.32;;
24585;SDS011;12743;52.262;6.172;2023-12-07T11:33:52;45.00;;;14.32;;
24585;SDS011;12743;52.262;6.172;2023-12-07T11:36:19;46.05;;;15.23;;
24585;SDS011;12743;52.262;6.172;2023-12-07T11:41:44;60.05;;;17.23;;
24585;SDS011;12743;52.262;6.172;2023-12-07T11:44:11;46.88;;;13.73;;
24585;SDS011;12743;52.262;6.172;2023-12-07T11:46:38;58.45;;;17.25;;
24585;SDS011;12743;52.262;6.172;2023-12-07T11:49:05;55.83;;;16.55;;
24585;SDS011;12743;52.262;6.172;2023-12-07T11:51:53;50.33;;;16.25;;
24585;SDS011;12743;52.262;6.172;2023-12-07T11:54:21;45.20;;;13.95;;
24585;SDS011;12743;52.262;6.172;2023-12-07T11:56:57;52.53;;;16.30;;
24585;SDS011;12743;52.262;6.172;2023-12-07T11:59:24;43.92;;;14.07;;
24585;SDS011;12743;52.262;6.172;2023-12-07T12:01:59;62.40;;;17.38;;
24585;SDS011;12743;52.262;6.172;2023-12-07T12:04:29;49.25;;;14.57;;
24585;SDS011;12743;52.262;6.172;2023-12-07T12:06:56;48.83;;;14.63;;
24585;SDS011;12743;52.262;6.172;2023-12-07T12:09:25;55.40;;;16.17;;
24585;SDS011;12743;52.262;6.172;2023-12-07T12:11:58;58.45;;;19.08;;
24585;SDS011;12743;52.262;6.172;2023-12-07T12:14:26;55.83;;;16.88;;
24585;SDS011;12743;52.262;6.172;2023-12-07T12:16:54;52.70;;;16.35;;
24585;SDS011;12743;52.262;6.172;2023-12-07T12:19:22;57.38;;;18.67;;
24585;SDS011;12743;52.262;6.172;2023-12-07T12:22:00;58.88;;;17.25;;
24585;SDS011;12743;52.262;6.172;2023-12-07T12:24:32;49.17;;;15.07;;
24585;SDS011;12743;52.262;6.172;2023-12-07T12:26:59;58.97;;;16.25;;
24585;SDS011;12743;52.262;6.172;2023-12-07T12:29:26;51.83;;;15.45;;
24585;SDS011;12743;52.262;6.172;2023-12-07T12:32:00;60.70;;;19.17;;
24585;SDS011;12743;52.262;6.172;2023-12-07T12:34:28;46.45;;;14.70;;
24585;SDS011;12743;52.262;6.172;2023-12-07T12:36:55;52.08;;;16.48;;
24585;SDS011;12743;52.262;6.172;2023-12-07T12:39:26;57.20;;;16.55;;
24585;SDS011;12743;52.262;6.172;2023-12-07T12:41:59;55.95;;;16.50;;
24585;SDS011;12743;52.262;6.172;2023-12-07T12:44:27;59.35;;;19.25;;
24585;SDS011;12743;52.262;6.172;2023-12-07T12:47:04;56.53;;;19.75;;
24585;SDS011;12743;52.262;6.172;2023-12-07T12:49:37;55.10;;;16.88;;
24585;SDS011;12743;52.262;6.172;2023-12-07T12:52:09;49.78;;;15.05;;
24585;SDS011;12743;52.262;6.172;2023-12-07T12:54:36;47.20;;;14.30;;
24585;SDS011;12743;52.262;6.172;2023-12-07T12:57:05;49.13;;;16.10;;
24585;SDS011;12743;52.262;6.172;2023-12-07T12:59:33;49.13;;;17.05;;
24585;SDS011;12743;52.262;6.172;2023-12-07T13:01:59;42.08;;;15.30;;
24585;SDS011;12743;52.262;6.172;2023-12-07T13:04:26;55.20;;;16.85;;
24585;SDS011;12743;52.262;6.172;2023-12-07T13:06:53;50.50;;;15.40;;
24585;SDS011;12743;52.262;6.172;2023-12-07T13:09:20;44.78;;;14.50;;
24585;SDS011;12743;52.262;6.172;2023-12-07T13:11:47;48.40;;;16.25;;
24585;SDS011;12743;52.262;6.172;2023-12-07T13:14:15;55.53;;;17.08;;
24585;SDS011;12743;52.262;6.172;2023-12-07T13:16:45;42.53;;;14.57;;
24585;SDS011;12743;52.262;6.172;2023-12-07T13:19:11;47.03;;;15.15;;
24585;SDS011;12743;52.262;6.172;2023-12-07T13:21:38;47.30;;;16.30;;
24585;SDS011;12743;52.262;6.172;2023-12-07T13:24:05;47.85;;;16.00;;
24585;SDS011;12743;52.262;6.172;2023-12-07T13:26:33;56.72;;;19.50;;
24585;SDS011;12743;52.262;6.172;2023-12-07T13:29:00;49.53;;;17.00;;
24585;SDS011;12743;52.262;6.172;2023-12-07T13:31:27;51.22;;;15.80;;
24585;SDS011;12743;52.262;6.172;2023-12-07T13:33:53;45.67;;;15.73;;
24585;SDS011;12743;52.262;6.172;2023-12-07T13:36:25;49.60;;;16.35;;
24585;SDS011;12743;52.262;6.172;2023-12-07T13:38:55;49.78;;;16.40;;
24585;SDS011;12743;52.262;6.172;2023-12-07T13:41:22;48.92;;;15.35;;
24585;SDS011;12743;52.262;6.172;2023-12-07T13:43:49;46.17;;;15.55;;
24585;SDS011;12743;52.262;6.172;2023-12-07T13:46:17;51.33;;;16.40;;
24585;SDS011;12743;52.262;6.172;2023-12-07T13:48:43;50.17;;;17.25;;
24585;SDS011;12743;52.262;6.172;2023-12-07T13:51:11;46.47;;;15.73;;
24585;SDS011;12743;52.262;6.172;2023-12-07T13:53:38;47.30;;;16.40;;
24585;SDS011;12743;52.262;6.172;2023-12-07T13:56:05;43.22;;;14.80;;
24585;SDS011;12743;52.262;6.172;2023-12-07T13:58:34;43.45;;;16.00;;
24585;SDS011;12743;52.262;6.172;2023-12-07T14:01:05;46.58;;;16.95;;
24585;SDS011;12743;52.262;6.172;2023-12-07T14:03:33;47.35;;;15.93;;
24585;SDS011;12743;52.262;6.172;2023-12-07T14:06:00;43.40;;;15.38;;
24585;SDS011;12743;52.262;6.172;2023-12-07T14:08:37;52.97;;;17.30;;
24585;SDS011;12743;52.262;6.172;2023-12-07T14:11:03;56.17;;;18.95;;
24585;SDS011;12743;52.262;6.172;2023-12-07T14:13:30;56.85;;;18.08;;
24585;SDS011;12743;52.262;6.172;2023-12-07T14:15:58;48.33;;;17.30;;
24585;SDS011;12743;52.262;6.172;2023-12-07T14:18:38;45.95;;;17.55;;
24585;SDS011;12743;52.262;6.172;2023-12-07T14:21:05;58.35;;;19.63;;
24585;SDS011;12743;52.262;6.172;2023-12-07T14:23:48;56.05;;;18.95;;
24585;SDS011;12743;52.262;6.172;2023-12-07T14:26:21;59.80;;;20.70;;
24585;SDS011;12743;52.262;6.172;2023-12-07T14:28:48;54.28;;;19.02;;
24585;SDS011;12743;52.262;6.172;2023-12-07T14:31:14;56.95;;;20.27;;
24585;SDS011;12743;52.262;6.172;2023-12-07T14:33:43;46.55;;;17.10;;
24585;SDS011;12743;52.262;6.172;2023-12-07T14:36:10;49.33;;;18.25;;
24585;SDS011;12743;52.262;6.172;2023-12-07T14:38:39;55.92;;;20.23;;